Time;durP1;ratioP1;P1;durP2;ratioP2;P2;SDS_P1;SDS_P2;PMS_P1;PMS_P2;Temp;Humidity;BMP_temperature;BMP_pressure;BME280_temperature;BME280_humidity;BME280_pressure;Samples;Min_cycle;Max_cycle;Signal;HPM_P1;HPM_P2
2022/05/23 00:01:21;;;;;;;6.83;2.80;;;11.10;99.90;;;;;;4985671;28;20977;-50
2022/05/23 00:03:48;;;;;;;3.83;2.20;;;11.10;99.90;;;;;;4988066;28;20467;-51
2022/05/23 00:06:19;;;;;;;7.23;2.10;;;11.00;99.90;;;;;;4993594;28;20551;-50
2022/05/23 00:08:50;;;;;;;3.73;2.30;;;11.00;99.90;;;;;;4984986;28;20477;-50
2022/05/23 00:11:17;;;;;;;3.50;2.00;;;11.00;99.90;;;;;;4986085;28;20484;-50
2022/05/23 00:13:45;;;;;;;4.87;2.03;;;10.90;99.90;;;;;;4985191;28;20479;-51
2022/05/23 00:16:18;;;;;;;3.60;2.07;;;11.00;99.90;;;;;;4991793;28;20511;-50
2022/05/23 00:18:45;;;;;;;2.67;2.30;;;11.00;99.90;;;;;;4986925;28;20496;-51
2022/05/23 00:21:12;;;;;;;2.67;2.17;;;11.00;99.80;;;;;;4985475;28;20475;-52
2022/05/23 00:23:38;;;;;;;3.27;2.97;;;11.00;96.40;;;;;;4988904;28;20540;-50
2022/05/23 00:26:06;;;;;;;3.47;2.20;;;11.00;96.80;;;;;;4987559;28;20548;-51
2022/05/23 00:28:33;;;;;;;2.23;2.10;;;11.00;97.90;;;;;;4988046;28;20589;-51
2022/05/23 00:30:59;;;;;;;2.30;2.10;;;11.10;95.30;;;;;;4985185;28;20580;-52
2022/05/23 00:36:11;;;;;;;3.70;2.40;;;11.10;99.90;;;;;;4987716;28;20483;-51
2022/05/23 00:38:37;;;;;;;2.77;2.40;;;11.00;99.90;;;;;;4988753;28;20461;-50
2022/05/23 00:44:02;;;;;;;2.70;2.53;;;11.00;99.10;;;;;;4984487;28;20464;-51
2022/05/23 00:46:29;;;;;;;2.43;2.23;;;11.00;93.90;;;;;;4984809;28;20492;-50
2022/05/23 00:48:58;;;;;;;3.17;2.80;;;11.00;94.40;;;;;;4986836;28;20508;-51
2022/05/23 00:51:25;;;;;;;3.80;2.50;;;11.10;93.80;;;;;;4987037;28;20575;-51
2022/05/23 00:53:57;;;;;;;2.53;2.33;;;11.10;95.30;;;;;;4987371;28;20488;-50
2022/05/23 00:56:30;;;;;;;8.77;4.27;;;11.20;95.20;;;;;;4991238;28;20484;-51
2022/05/23 00:59:02;;;;;;;8.13;3.03;;;11.10;96.60;;;;;;4991713;28;20942;-51
2022/05/23 01:01:35;;;;;;;3.00;2.70;;;11.10;95.70;;;;;;4984471;28;20645;-52
2022/05/23 01:04:02;;;;;;;2.83;2.40;;;11.10;94.10;;;;;;4983458;28;20899;-51
2022/05/23 01:06:29;;;;;;;3.30;3.00;;;11.10;90.60;;;;;;4986469;28;20476;-50
2022/05/23 01:08:57;;;;;;;3.53;2.60;;;11.00;91.30;;;;;;4987378;28;20958;-51
2022/05/23 01:11:26;;;;;;;6.60;2.73;;;11.10;90.30;;;;;;4990431;28;20516;-50
2022/05/23 01:13:54;;;;;;;2.90;2.50;;;11.00;86.30;;;;;;4987225;28;20489;-50
2022/05/23 01:16:21;;;;;;;3.07;2.47;;;11.00;88.70;;;;;;4985661;28;20480;-50
2022/05/23 01:18:47;;;;;;;6.27;3.27;;;11.00;87.00;;;;;;4987939;28;20478;-51
2022/05/23 01:21:23;;;;;;;3.13;2.80;;;11.00;87.80;;;;;;4987397;28;20551;-51
2022/05/23 01:23:55;;;;;;;4.10;3.33;;;10.90;84.40;;;;;;4989435;28;20563;-52
2022/05/23 01:26:23;;;;;;;3.43;2.87;;;10.90;85.40;;;;;;4989131;28;20488;-52
2022/05/23 01:28:51;;;;;;;7.63;3.83;;;10.90;81.10;;;;;;4991472;28;20491;-52
2022/05/23 01:31:17;;;;;;;7.03;3.67;;;10.90;80.50;;;;;;4987894;28;20488;-51
2022/05/23 01:33:44;;;;;;;6.50;3.53;;;10.90;81.50;;;;;;4992520;28;20989;-52
2022/05/23 01:36:12;;;;;;;5.30;3.07;;;10.90;77.90;;;;;;4987060;28;20991;-51
2022/05/23 01:38:39;;;;;;;2.90;2.70;;;10.90;79.70;;;;;;4988083;28;21117;-50
2022/05/23 01:41:06;;;;;;;3.90;3.50;;;10.90;76.30;;;;;;4978354;28;20552;-50
2022/05/23 01:43:35;;;;;;;5.23;3.40;;;11.00;78.00;;;;;;4987123;28;20469;-51
2022/05/23 01:46:02;;;;;;;3.77;3.13;;;10.90;76.80;;;;;;4985657;28;21052;-52
2022/05/23 01:48:28;;;;;;;4.93;4.10;;;10.90;75.90;;;;;;4989318;28;20576;-51
2022/05/23 01:50:55;;;;;;;5.53;3.50;;;10.90;72.70;;;;;;4983948;28;20583;-51
2022/05/23 01:53:22;;;;;;;5.77;3.47;;;10.90;73.10;;;;;;4987386;28;21022;-51
2022/05/23 01:55:48;;;;;;;3.60;2.77;;;10.90;73.60;;;;;;4985467;28;20468;-52
2022/05/23 02:01:12;;;;;;;5.97;3.20;;;10.90;75.40;;;;;;4988264;28;20559;-50
2022/05/23 02:01:14;;;;;;;6.77;3.67;;;10.90;74.40;;;;;;4988671;28;20985;-51
2022/05/23 02:03:41;;;;;;;3.23;2.93;;;10.90;71.90;;;;;;4986781;28;20469;-50
2022/05/23 02:06:08;;;;;;;6.73;3.53;;;10.90;71.10;;;;;;4987349;28;20492;-50
2022/05/23 02:08:34;;;;;;;3.50;3.20;;;10.90;71.40;;;;;;5004156;23;20515;-49
2022/05/23 02:11:01;;;;;;;4.70;3.53;;;10.80;73.70;;;;;;5005883;28;21012;-49
2022/05/23 02:13:28;;;;;;;3.90;3.17;;;10.80;69.00;;;;;;5007488;28;20492;-49
2022/05/23 02:15:54;;;;;;;3.83;3.53;;;10.80;68.10;;;;;;5003944;28;20467;-48
2022/05/23 02:18:22;;;;;;;4.03;3.53;;;10.80;66.60;;;;;;5006131;28;20490;-49
2022/05/23 02:20:48;;;;;;;3.13;2.77;;;10.80;63.80;;;;;;5008668;28;20878;-49
2022/05/23 02:23:15;;;;;;;3.80;3.50;;;10.80;61.50;;;;;;5008962;28;20495;-49
2022/05/23 02:25:41;;;;;;;3.10;2.80;;;10.80;62.40;;;;;;5005656;28;20495;-49
2022/05/23 02:28:09;;;;;;;4.33;3.93;;;10.80;60.00;;;;;;5008455;28;20503;-49
2022/05/23 02:30:35;;;;;;;3.57;3.27;;;10.80;56.80;;;;;;5007201;28;20572;-50
2022/05/23 02:33:02;;;;;;;3.50;3.20;;;10.80;60.40;;;;;;5014968;28;20538;-49
2022/05/23 02:35:30;;;;;;;4.57;3.27;;;10.80;59.90;;;;;;5005982;28;20921;-49
2022/05/23 02:37:57;;;;;;;6.33;3.80;;;10.70;60.60;;;;;;5003531;28;20523;-48
2022/05/23 02:40:24;;;;;;;3.67;3.37;;;10.70;59.10;;;;;;5008311;28;20471;-49
2022/05/23 02:42:51;;;;;;;3.77;3.40;;;10.70;57.70;;;;;;5007370;28;20979;-48
2022/05/23 02:45:18;;;;;;;3.83;3.20;;;10.70;57.50;;;;;;5008159;28;20898;-49
2022/05/23 02:47:44;;;;;;;4.10;3.73;;;10.60;55.50;;;;;;5004794;28;20582;-49
2022/05/23 02:50:12;;;;;;;5.87;4.27;;;10.60;55.90;;;;;;5006395;28;20549;-49
2022/05/23 02:52:42;;;;;;;3.50;3.20;;;10.60;54.20;;;;;;5004343;28;20455;-48
2022/05/23 02:55:09;;;;;;;6.07;3.53;;;10.60;52.20;;;;;;5006640;28;20452;-49
2022/05/23 02:57:36;;;;;;;7.33;3.70;;;10.70;54.90;;;;;;5003297;28;20464;-49
2022/05/23 03:00:04;;;;;;;5.70;4.20;;;10.60;56.70;;;;;;5005601;28;20596;-49
2022/05/23 03:05:15;;;;;;;4.63;3.70;;;10.60;48.70;;;;;;5000298;28;20527;-49
2022/05/23 03:07:43;;;;;;;7.67;4.33;;;10.60;53.00;;;;;;5005940;28;20495;-49
2022/05/23 03:10:10;;;;;;;5.03;3.97;;;10.60;50.00;;;;;;5001030;28;20582;-49
2022/05/23 03:12:36;;;;;;;5.20;4.70;;;10.70;48.10;;;;;;5003592;28;20488;-50
2022/05/23 03:15:05;;;;;;;5.23;3.60;;;10.60;51.50;;;;;;5003297;28;20522;-49
2022/05/23 03:17:31;;;;;;;5.10;3.70;;;10.70;51.30;;;;;;5011681;28;20471;-49
2022/05/23 03:19:58;;;;;;;5.97;3.73;;;10.70;51.60;;;;;;5010533;28;21063;-49
2022/05/23 03:27:55;;;;;;;4.67;3.70;;;10.80;55.50;;;;;;5007114;28;20583;-50
2022/05/23 03:30:21;;;;;;;6.13;3.83;;;10.80;56.20;;;;;;5006220;28;20506;-49
2022/05/23 03:32:48;;;;;;;3.53;3.33;;;10.90;56.50;;;;;;5005187;28;20496;-50
2022/05/23 03:35:15;;;;;;;6.73;3.80;;;10.90;57.60;;;;;;5007014;28;20549;-49
2022/05/23 03:37:42;;;;;;;6.70;3.60;;;10.90;59.40;;;;;;5007095;28;20490;-50
2022/05/23 03:40:11;;;;;;;4.50;4.00;;;10.90;60.90;;;;;;5008687;28;20480;-49
2022/05/23 03:42:37;;;;;;;5.73;3.63;;;10.90;60.30;;;;;;5006974;28;20930;-49
2022/05/23 03:45:07;;;;;;;5.20;3.83;;;11.00;59.90;;;;;;5009504;28;20542;-49
2022/05/23 03:47:34;;;;;;;6.20;4.10;;;11.00;57.20;;;;;;5005308;28;20492;-50
2022/05/23 03:50:00;;;;;;;4.23;3.87;;;11.10;58.30;;;;;;5008332;28;20523;-49
2022/05/23 03:52:27;;;;;;;6.00;3.30;;;11.10;60.10;;;;;;5003589;28;20490;-49
2022/05/23 03:54:53;;;;;;;3.47;3.20;;;11.10;60.40;;;;;;5006428;28;20492;-49
2022/05/23 03:57:23;;;;;;;4.40;3.70;;;11.20;63.70;;;;;;5006684;28;22017;-50
2022/05/23 03:59:50;;;;;;;5.20;4.27;;;11.20;61.80;;;;;;5001738;28;20511;-49
2022/05/23 04:02:16;;;;;;;6.23;4.10;;;11.30;63.50;;;;;;5003520;28;20463;-50
2022/05/23 04:04:43;;;;;;;5.50;3.60;;;11.30;67.90;;;;;;5003036;28;20492;-49
2022/05/23 04:07:10;;;;;;;5.20;3.67;;;11.40;71.50;;;;;;5004831;28;20492;-49
2022/05/23 04:09:36;;;;;;;3.97;3.60;;;11.40;78.50;;;;;;5006290;28;20531;-49
2022/05/23 04:12:04;;;;;;;4.60;3.80;;;11.50;82.90;;;;;;5004369;28;21103;-49
2022/05/23 04:14:31;;;;;;;5.80;4.40;;;11.60;86.60;;;;;;5005594;28;20497;-49
2022/05/23 04:16:58;;;;;;;6.00;3.90;;;11.60;90.40;;;;;;5007413;28;20499;-49
2022/05/23 04:19:26;;;;;;;5.37;3.50;;;11.70;90.50;;;;;;5008457;28;20537;-50
2022/05/23 04:21:52;;;;;;;7.50;3.60;;;11.70;94.90;;;;;;5006443;28;20463;-49
2022/05/23 04:24:19;;;;;;;8.90;4.30;;;11.80;96.50;;;;;;5000444;28;20460;-50
2022/05/23 04:26:51;;;;;;;3.90;3.60;;;11.80;99.90;;;;;;4999222;28;20503;-52
2022/05/23 04:29:18;;;;;;;4.53;3.20;;;11.90;99.90;;;;;;5004104;28;20934;-50
2022/05/23 04:31:46;;;;;;;6.77;4.10;;;12.00;99.90;;;;;;5003981;28;20566;-50
2022/05/23 04:36:56;;;;;;;4.33;3.93;;;12.10;99.90;;;;;;5003808;28;20525;-49
2022/05/23 04:39:23;;;;;;;6.40;4.30;;;12.20;99.90;;;;;;5002617;28;21719;-50
2022/05/23 04:41:50;;;;;;;7.03;4.33;;;12.30;99.90;;;;;;5005674;28;20567;-50
2022/05/23 04:44:16;;;;;;;4.87;4.23;;;12.40;99.90;;;;;;5005393;28;20459;-50
2022/05/23 04:49:41;;;;;;;8.10;4.00;;;12.40;99.90;;;;;;4999363;28;20568;-50
2022/05/23 04:52:08;;;;;;;6.00;3.63;;;12.50;99.90;;;;;;5002299;28;20547;-49
2022/05/23 04:54:35;;;;;;;7.40;4.10;;;12.60;99.90;;;;;;5008600;28;20492;-49
2022/05/23 04:57:02;;;;;;;4.50;4.10;;;12.70;99.90;;;;;;5001617;28;20488;-49
2022/05/23 04:59:28;;;;;;;10.13;4.57;;;12.70;99.90;;;;;;5008747;28;20522;-49
2022/05/23 05:01:55;;;;;;;15.70;4.47;;;12.80;99.90;;;;;;5007640;28;20530;-48
2022/05/23 05:04:21;;;;;;;4.20;3.77;;;12.80;99.90;;;;;;5005837;28;20855;-49
2022/05/23 05:06:49;;;;;;;7.33;5.10;;;12.90;99.90;;;;;;5006197;28;20496;-49
2022/05/23 05:09:16;;;;;;;4.90;4.40;;;13.00;99.90;;;;;;5009931;28;20507;-49
2022/05/23 05:11:42;;;;;;;4.53;4.10;;;13.10;99.90;;;;;;5000591;28;20551;-49
2022/05/23 05:14:09;;;;;;;6.23;4.13;;;13.10;99.90;;;;;;5004801;28;20491;-49
2022/05/23 05:16:36;;;;;;;7.00;4.40;;;13.20;99.90;;;;;;5009561;28;20496;-50
2022/05/23 05:19:03;;;;;;;7.00;3.97;;;13.20;99.90;;;;;;5010495;28;20511;-49
2022/05/23 05:21:30;;;;;;;8.63;4.70;;;13.30;99.90;;;;;;5004498;28;20510;-49
2022/05/23 05:23:58;;;;;;;10.53;4.33;;;13.40;99.90;;;;;;5010447;28;20508;-49
2022/05/23 05:26:25;;;;;;;5.97;4.20;;;13.50;99.90;;;;;;5006964;28;20472;-49
2022/05/23 05:28:51;;;;;;;7.43;4.77;;;13.50;99.90;;;;;;5004722;28;20487;-49
2022/05/23 05:31:24;;;;;;;8.37;4.37;;;13.60;99.90;;;;;;5003825;28;20511;-49
2022/05/23 05:33:55;;;;;;;4.83;3.90;;;13.60;99.90;;;;;;5007684;28;20904;-49
2022/05/23 05:36:27;;;;;;;9.80;3.90;;;13.70;99.90;;;;;;5006029;28;20875;-50
2022/05/23 05:39:00;;;;;;;5.73;3.50;;;13.70;99.90;;;;;;5002171;28;20484;-49
2022/05/23 05:41:31;;;;;;;4.43;3.93;;;13.80;99.90;;;;;;5002274;28;20489;-50
2022/05/23 05:44:00;;;;;;;5.37;3.43;;;13.80;99.90;;;;;;5009681;28;20897;-49
2022/05/23 05:46:30;;;;;;;7.07;4.20;;;13.80;99.90;;;;;;5012105;28;20491;-49
2022/05/23 05:49:00;;;;;;;5.60;4.00;;;13.90;99.90;;;;;;5004874;28;20515;-50
2022/05/23 05:51:28;;;;;;;6.13;4.27;;;14.00;99.90;;;;;;5002202;28;20506;-49
2022/05/23 05:53:55;;;;;;;5.27;3.83;;;14.00;99.90;;;;;;5005675;28;20566;-50
2022/05/23 05:56:23;;;;;;;4.23;3.30;;;14.10;99.90;;;;;;5008106;28;20518;-49
2022/05/23 05:58:50;;;;;;;6.90;3.87;;;14.10;99.90;;;;;;5003536;28;20475;-49
2022/05/23 06:01:17;;;;;;;3.40;3.20;;;14.20;99.90;;;;;;5005971;28;20509;-50
2022/05/23 06:03:43;;;;;;;4.60;3.50;;;14.20;99.90;;;;;;5009479;28;20449;-49
2022/05/23 06:11:39;;;;;;;5.20;3.60;;;14.40;99.90;;;;;;5004455;28;20479;-49
2022/05/23 06:14:06;;;;;;;6.90;3.20;;;14.50;99.90;;;;;;5005614;28;20491;-49
2022/05/23 06:16:35;;;;;;;5.80;3.43;;;14.60;99.90;;;;;;5008425;28;20494;-50
2022/05/23 06:19:02;;;;;;;7.57;3.90;;;14.70;99.90;;;;;;5008653;28;20519;-50
2022/05/23 06:21:29;;;;;;;6.57;3.70;;;14.70;99.90;;;;;;5011126;28;20486;-49
2022/05/23 06:23:56;;;;;;;3.33;3.03;;;14.80;99.90;;;;;;5012734;28;20486;-50
2022/05/23 06:26:26;;;;;;;4.40;3.73;;;14.80;99.90;;;;;;5013330;28;20502;-49
2022/05/23 06:28:54;;;;;;;5.27;3.57;;;14.80;99.90;;;;;;5009976;28;20478;-50
2022/05/23 06:31:21;;;;;;;4.57;3.27;;;15.00;99.90;;;;;;5007624;28;20542;-49
2022/05/23 06:33:48;;;;;;;3.90;3.00;;;15.10;99.90;;;;;;5011953;28;20484;-50
2022/05/23 06:36:15;;;;;;;3.43;3.17;;;15.10;99.90;;;;;;5016623;28;20470;-49
2022/05/23 06:38:42;;;;;;;5.43;2.83;;;15.20;25.30;;;;;;4999945;28;20512;-49
2022/05/23 06:41:10;;;;;;;9.33;2.77;;;15.20;22.60;;;;;;5007222;28;20479;-50
2022/05/23 06:43:39;;;;;;;3.80;3.30;;;15.30;26.20;;;;;;5011714;28;20894;-49
2022/05/23 06:46:09;;;;;;;3.10;2.63;;;15.40;24.90;;;;;;5005381;28;20496;-49
2022/05/23 06:48:36;;;;;;;6.60;2.93;;;15.40;29.40;;;;;;5009903;28;20482;-50
2022/05/23 06:51:03;;;;;;;4.33;2.90;;;15.60;30.20;;;;;;5005058;28;20495;-50
2022/05/23 06:53:30;;;;;;;6.63;2.87;;;15.60;37.80;;;;;;5010084;28;20879;-50
2022/05/23 06:55:57;;;;;;;4.40;3.30;;;15.70;32.20;;;;;;5000829;28;20503;-49
2022/05/23 06:58:24;;;;;;;4.20;3.10;;;15.80;42.10;;;;;;5010897;28;20490;-49
2022/05/23 07:00:52;;;;;;;2.80;2.60;;;15.80;61.90;;;;;;5008176;28;20463;-49
2022/05/23 07:03:21;;;;;;;3.27;2.40;;;15.90;62.60;;;;;;5012845;28;20817;-50
2022/05/23 07:14:02;;;;;;;3.80;3.23;;;16.20;68.80;;;;;;5010075;28;20885;-49
2022/05/23 07:16:31;;;;;;;4.37;2.37;;;16.30;68.10;;;;;;5000267;28;20492;-49
2022/05/23 07:18:59;;;;;;;7.27;3.33;;;16.40;74.20;;;;;;5010186;28;20471;-49
2022/05/23 07:21:26;;;;;;;4.13;2.73;;;16.50;87.90;;;;;;5008496;28;20484;-49
2022/05/23 07:23:52;;;;;;;5.73;2.50;;;16.50;89.20;;;;;;5003659;28;20464;-49
2022/05/23 07:26:20;;;;;;;3.50;2.47;;;16.60;94.70;;;;;;5003887;28;20491;-49
2022/05/23 07:28:47;;;;;;;4.73;2.70;;;16.60;92.20;;;;;;5006605;28;20515;-49
2022/05/23 07:31:14;;;;;;;10.93;2.40;;;16.70;90.60;;;;;;5007071;28;20962;-49
2022/05/23 07:33:41;;;;;;;2.80;2.57;;;16.80;88.10;;;;;;5003210;28;20491;-49
2022/05/23 07:36:11;;;;;;;6.83;2.63;;;16.90;87.50;;;;;;5011136;28;20463;-50
2022/05/23 07:38:38;;;;;;;5.13;2.13;;;17.00;94.60;;;;;;5005056;28;20483;-49
2022/05/23 07:41:06;;;;;;;3.27;2.50;;;17.20;99.90;;;;;;5006620;28;20452;-48
2022/05/23 07:43:35;;;;;;;4.10;2.47;;;17.20;99.90;;;;;;5002747;28;20460;-50
2022/05/23 07:46:07;;;;;;;4.50;2.53;;;17.30;99.90;;;;;;5013528;28;20459;-50
2022/05/23 07:48:33;;;;;;;2.50;2.07;;;17.40;99.90;;;;;;5002798;28;21047;-49
2022/05/23 07:51:00;;;;;;;6.03;2.40;;;17.30;99.90;;;;;;5010763;28;20984;-49
2022/05/23 08:01:40;;;;;;;3.50;2.13;;;17.50;99.90;;;;;;5009797;28;20482;-50
2022/05/23 08:04:08;;;;;;;1.83;1.70;;;17.60;99.90;;;;;;5002094;28;20491;-49
2022/05/23 08:06:34;;;;;;;3.83;2.00;;;17.60;99.90;;;;;;5006598;28;20464;-50
2022/05/23 08:09:04;;;;;;;6.50;2.57;;;17.70;99.90;;;;;;5015550;23;20592;-52
2022/05/23 08:11:30;;;;;;;8.27;2.80;;;17.80;99.90;;;;;;5002986;28;20547;-53
2022/05/23 08:13:58;;;;;;;2.40;2.17;;;17.90;99.90;;;;;;5003565;28;20526;-51
2022/05/23 08:16:25;;;;;;;2.20;2.00;;;17.90;99.90;;;;;;5008841;28;20551;-52
2022/05/23 08:18:51;;;;;;;5.23;1.93;;;17.90;99.90;;;;;;5008241;28;20496;-53
2022/05/23 08:21:18;;;;;;;3.10;2.40;;;18.00;99.90;;;;;;5006662;28;20834;-53
2022/05/23 08:23:45;;;;;;;2.87;2.13;;;18.00;99.90;;;;;;5011194;28;20892;-54
2022/05/23 08:26:14;;;;;;;3.07;2.17;;;18.10;99.90;;;;;;5004759;28;20475;-54
2022/05/23 08:28:41;;;;;;;2.40;2.13;;;18.10;99.90;;;;;;5005892;28;20486;-53
2022/05/23 08:31:07;;;;;;;11.83;2.53;;;18.20;99.90;;;;;;5005152;28;20462;-53
2022/05/23 08:33:34;;;;;;;4.50;2.67;;;18.30;99.90;;;;;;5000956;28;20578;-53
2022/05/23 08:36:00;;;;;;;3.83;2.00;;;18.40;99.90;;;;;;5007529;28;20522;-52
2022/05/23 08:38:27;;;;;;;4.10;2.03;;;18.50;99.90;;;;;;5007915;28;20503;-52
2022/05/23 08:41:02;;;;;;;3.90;2.33;;;18.60;99.90;;;;;;5001707;28;22476;-53
2022/05/23 08:43:40;;;;;;;3.83;3.20;;;18.60;99.90;;;;;;5008093;28;20479;-51
2022/05/23 08:46:08;;;;;;;4.00;2.23;;;18.70;99.90;;;;;;5000324;28;20495;-53
2022/05/23 08:48:43;;;;;;;2.27;1.80;;;18.70;99.90;;;;;;5000375;28;20488;-53
2022/05/23 08:51:15;;;;;;;9.30;2.17;;;18.70;99.90;;;;;;5005887;28;20495;-52
2022/05/23 08:53:48;;;;;;;5.43;2.50;;;18.80;99.90;;;;;;4996789;28;20948;-53
2022/05/23 08:56:21;;;;;;;3.37;2.03;;;18.80;99.90;;;;;;5002736;28;20490;-52
2022/05/23 08:58:52;;;;;;;2.27;1.80;;;18.90;99.90;;;;;;5005622;28;21049;-53
2022/05/23 09:01:23;;;;;;;2.97;2.30;;;19.00;99.90;;;;;;5000070;28;20458;-51
2022/05/23 09:03:55;;;;;;;4.07;1.90;;;19.10;99.90;;;;;;4994331;28;20469;-53
2022/05/23 09:06:28;;;;;;;1.90;1.70;;;19.30;99.90;;;;;;5000980;28;20476;-53
2022/05/23 09:08:57;;;;;;;2.37;2.17;;;19.40;99.90;;;;;;5008327;28;20495;-52
2022/05/23 09:11:29;;;;;;;3.20;1.70;;;19.40;99.90;;;;;;5002699;28;20475;-53
2022/05/23 09:13:59;;;;;;;3.30;2.13;;;19.50;99.90;;;;;;5010641;28;20518;-53
2022/05/23 09:16:29;;;;;;;2.50;1.80;;;19.60;99.90;;;;;;4998920;28;20496;-53
2022/05/23 09:18:59;;;;;;;7.83;2.83;;;19.30;99.90;;;;;;5005852;28;20511;-53
2022/05/23 09:22:12;;;;;;;2.00;1.80;;;19.50;99.90;;;;;;5000947;28;20521;-53
2022/05/23 09:24:13;;;;;;;1.93;1.83;;;19.60;99.90;;;;;;5004895;28;20456;-52
2022/05/23 09:26:40;;;;;;;4.00;2.17;;;19.70;99.90;;;;;;4996072;28;20521;-52
2022/05/23 09:29:09;;;;;;;3.33;2.63;;;19.70;99.90;;;;;;4999528;28;20583;-52
2022/05/23 09:31:44;;;;;;;3.43;2.30;;;19.70;99.90;;;;;;5003622;28;20617;-53
2022/05/23 09:34:33;;;;;;;1.77;1.40;;;19.70;99.90;;;;;;5007672;28;20523;-52
2022/05/23 09:37:01;;;;;;;2.60;1.90;;;19.70;99.90;;;;;;5001605;28;20503;-52
2022/05/23 09:39:29;;;;;;;2.63;1.90;;;19.70;99.90;;;;;;5005026;28;20473;-54
2022/05/23 09:47:46;;;;;;;5.20;1.97;;;19.50;99.90;;;;;;5002748;28;20491;-52
2022/05/23 09:50:14;;;;;;;3.13;1.53;;;19.50;99.90;;;;;;5006326;28;20550;-52
2022/05/23 09:52:50;;;;;;;2.60;1.67;;;19.50;99.90;;;;;;5002009;28;20521;-53
2022/05/23 09:55:28;;;;;;;3.27;2.00;;;19.50;99.90;;;;;;4998044;28;20463;-53
2022/05/23 09:57:56;;;;;;;2.73;1.60;;;19.70;99.90;;;;;;5005001;28;20539;-52
2022/05/23 10:00:35;;;;;;;3.57;1.50;;;19.80;99.90;;;;;;5009727;28;20984;-52
2022/05/23 10:03:04;;;;;;;2.90;1.60;;;19.90;99.90;;;;;;5003624;28;20453;-53
2022/05/23 10:05:33;;;;;;;2.83;1.60;;;19.90;99.90;;;;;;5005806;28;20891;-53
2022/05/23 10:08:01;;;;;;;3.33;1.77;;;20.00;99.90;;;;;;5002975;28;20468;-53
2022/05/23 10:10:30;;;;;;;2.07;1.67;;;20.00;99.90;;;;;;5010965;28;20534;-53
2022/05/23 10:13:18;;;;;;;4.43;1.63;;;20.00;99.90;;;;;;5004539;28;20575;-53
2022/05/23 10:15:49;;;;;;;1.73;1.60;;;20.00;99.90;;;;;;4998500;28;20499;-54
2022/05/23 10:18:20;;;;;;;5.80;1.60;;;20.00;99.90;;;;;;5006972;28;20463;-53
2022/05/23 10:20:47;;;;;;;5.73;2.10;;;19.90;99.90;;;;;;4996082;28;20487;-51
2022/05/23 10:23:17;;;;;;;3.23;2.07;;;19.90;99.90;;;;;;5006180;28;20451;-53
2022/05/23 10:25:50;;;;;;;2.00;1.70;;;20.00;99.90;;;;;;4998026;28;20464;-52
2022/05/23 10:28:22;;;;;;;2.17;1.63;;;20.00;99.90;;;;;;4996590;28;20460;-51
2022/05/23 10:30:58;;;;;;;2.00;1.60;;;20.10;99.90;;;;;;5008019;28;20492;-53
2022/05/23 10:33:28;;;;;;;1.63;1.43;;;20.00;99.90;;;;;;5004493;28;20977;-53
2022/05/23 10:36:02;;;;;;;10.03;1.70;;;20.00;99.90;;;;;;4997737;28;20840;-51
2022/05/23 10:44:21;;;;;;;5.60;1.50;;;20.10;99.90;;;;;;5002276;28;20576;-52
2022/05/23 10:47:03;;;;;;;3.20;1.70;;;20.10;99.90;;;;;;5005803;28;20903;-52
2022/05/23 10:49:40;;;;;;;1.87;1.77;;;20.00;99.90;;;;;;5004291;28;20932;-52
2022/05/23 10:52:18;;;;;;;2.30;1.57;;;19.90;99.90;;;;;;5007400;28;20505;-52
2022/05/23 10:54:52;;;;;;;3.67;1.60;;;20.00;99.90;;;;;;5009553;28;21024;-52
2022/05/23 10:57:33;;;;;;;3.87;1.43;;;19.90;99.90;;;;;;5009598;28;20467;-52
2022/05/23 11:00:05;;;;;;;3.07;1.70;;;19.90;99.90;;;;;;4999946;28;20520;-52
2022/05/23 11:02:50;;;;;;;3.27;1.10;;;20.00;99.90;;;;;;5006123;28;20467;-53
2022/05/23 11:05:21;;;;;;;2.70;1.73;;;20.00;99.90;;;;;;5001766;28;20468;-54
2022/05/23 11:08:01;;;;;;;5.90;1.33;;;20.00;99.90;;;;;;5006171;28;20463;-53
2022/05/23 11:10:34;;;;;;;3.07;1.90;;;20.10;99.90;;;;;;5013281;28;20509;-53
2022/05/23 11:13:11;;;;;;;3.07;2.20;;;20.10;99.90;;;;;;4998221;28;20594;-53
2022/05/23 11:15:58;;;;;;;4.53;1.63;;;20.10;99.90;;;;;;4997712;28;20502;-53
2022/05/23 11:18:50;;;;;;;2.20;1.60;;;20.10;99.90;;;;;;5001912;28;20511;-52
2022/05/23 11:21:22;;;;;;;3.00;1.80;;;20.30;99.90;;;;;;5004214;28;20455;-53
2022/05/23 11:23:56;;;;;;;10.50;2.00;;;20.40;99.90;;;;;;5000795;28;20485;-52
2022/05/23 11:26:26;;;;;;;1.50;1.40;;;20.50;99.90;;;;;;5012258;28;20807;-52
2022/05/23 11:34:34;;;;;;;1.70;1.60;;;20.70;99.90;;;;;;5004570;28;20617;-53
2022/05/23 11:37:42;;;;;;;1.67;1.50;;;20.80;99.90;;;;;;5005672;28;20492;-53
2022/05/23 11:39:58;;;;;;;5.97;2.00;;;20.80;99.90;;;;;;5000021;28;20476;-52
2022/05/23 11:42:30;;;;;;;1.40;1.33;;;20.80;99.90;;;;;;5001915;28;21085;-52
2022/05/23 11:48:30;;;;;;;2.10;1.53;;;20.70;99.90;;;;;;5005080;28;20471;-52
2022/05/23 11:51:10;;;;;;;3.97;1.40;;;20.60;99.90;;;;;;4993158;28;20495;-53
2022/05/23 11:53:40;;;;;;;2.93;1.30;;;20.50;99.90;;;;;;5000660;28;20578;-52
2022/05/23 11:56:09;;;;;;;4.40;1.80;;;20.60;99.90;;;;;;5007882;28;20503;-52
2022/05/23 11:58:47;;;;;;;1.40;1.30;;;20.40;99.90;;;;;;5000692;28;20495;-52
2022/05/23 12:01:21;;;;;;;1.67;1.33;;;20.50;99.90;;;;;;5005842;28;20456;-52
2022/05/23 12:04:13;;;;;;;3.33;1.33;;;20.50;99.90;;;;;;5003435;28;20494;-52
2022/05/23 12:06:42;;;;;;;2.17;1.73;;;20.40;99.90;;;;;;5010135;28;20451;-53
2022/05/23 12:09:32;;;;;;;1.53;1.43;;;20.40;99.90;;;;;;4995627;28;20488;-52
2022/05/23 12:12:34;;;;;;;3.43;2.07;;;20.30;99.90;;;;;;5000768;28;20504;-51
2022/05/23 12:15:00;;;;;;;1.90;1.67;;;20.20;99.90;;;;;;5002022;28;20589;-52
2022/05/23 12:17:30;;;;;;;3.07;1.73;;;20.30;99.90;;;;;;5002351;28;21426;-52
2022/05/23 12:19:58;;;;;;;2.10;1.80;;;20.30;99.90;;;;;;4994817;28;20516;-51
2022/05/23 12:22:29;;;;;;;4.43;1.87;;;20.40;99.90;;;;;;4996771;28;20503;-52
2022/05/23 12:25:03;;;;;;;4.47;1.67;;;20.30;99.90;;;;;;4998188;28;20507;-52
2022/05/23 12:27:32;;;;;;;5.03;2.20;;;20.40;99.90;;;;;;4998577;28;20977;-52
2022/05/23 12:30:31;;;;;;;2.30;1.40;;;20.40;99.90;;;;;;5001717;28;21001;-52
2022/05/23 12:33:08;;;;;;;1.90;1.80;;;20.50;99.90;;;;;;4997971;28;20558;-52
2022/05/23 12:35:47;;;;;;;2.13;1.70;;;20.60;99.90;;;;;;4998149;28;20563;-52
2022/05/23 12:38:26;;;;;;;1.97;1.63;;;20.70;99.90;;;;;;4993926;28;20916;-52
2022/05/23 12:41:00;;;;;;;5.50;1.50;;;20.70;99.90;;;;;;4998658;28;21056;-52
2022/05/23 12:43:41;;;;;;;1.60;1.33;;;20.80;99.90;;;;;;5000675;28;20555;-52
2022/05/23 12:46:22;;;;;;;3.80;1.80;;;20.90;99.90;;;;;;4996472;28;20455;-51
2022/05/23 12:49:02;;;;;;;2.50;1.60;;;20.90;99.90;;;;;;4998223;28;20480;-53
2022/05/23 12:51:40;;;;;;;3.03;1.60;;;20.90;99.90;;;;;;4993354;28;20529;-52
2022/05/23 12:54:36;;;;;;;2.20;1.80;;;20.90;99.90;;;;;;4990993;28;20516;-52
2022/05/23 12:57:17;;;;;;;6.07;1.57;;;20.90;99.90;;;;;;4999242;28;20570;-52
2022/05/23 12:59:50;;;;;;;1.90;1.80;;;21.10;99.90;;;;;;4991587;28;20508;-51
2022/05/23 13:02:22;;;;;;;3.10;1.80;;;21.20;99.90;;;;;;4994416;28;20530;-52
2022/05/23 13:04:54;;;;;;;5.10;1.67;;;21.20;99.90;;;;;;4993403;28;20496;-53
2022/05/23 13:07:26;;;;;;;4.10;2.27;;;21.10;99.90;;;;;;4999453;28;20546;-52
2022/05/23 13:09:57;;;;;;;1.90;1.80;;;21.10;99.90;;;;;;4993201;28;20584;-52
2022/05/23 13:12:30;;;;;;;1.60;1.50;;;21.10;99.90;;;;;;4995664;28;20555;-51
2022/05/23 13:14:58;;;;;;;3.37;1.70;;;21.10;99.90;;;;;;4996698;28;20512;-52
2022/05/23 13:17:44;;;;;;;3.13;2.00;;;21.10;99.90;;;;;;5000374;28;20485;-52
2022/05/23 13:23:12;;;;;;;6.00;1.50;;;21.40;99.90;;;;;;4990970;28;20472;-53
2022/05/23 13:25:40;;;;;;;1.60;1.50;;;21.40;99.90;;;;;;4995547;28;20484;-53
2022/05/23 13:28:09;;;;;;;4.83;1.80;;;21.60;99.90;;;;;;4993170;28;20470;-52
2022/05/23 13:30:37;;;;;;;1.77;1.50;;;21.60;99.90;;;;;;5002349;28;20487;-53
2022/05/23 13:33:11;;;;;;;2.00;1.73;;;21.70;99.90;;;;;;4994024;28;20460;-51
2022/05/23 13:35:39;;;;;;;3.20;1.50;;;21.80;99.90;;;;;;4992988;28;20518;-52
2022/05/23 13:38:18;;;;;;;3.03;1.60;;;21.90;99.90;;;;;;4989552;28;20539;-52
2022/05/23 13:40:48;;;;;;;11.07;1.97;;;21.80;99.90;;;;;;4992731;28;20486;-53
2022/05/23 13:43:18;;;;;;;3.57;1.93;;;21.70;99.90;;;;;;4995861;28;20490;-52
2022/05/23 13:45:46;;;;;;;3.27;1.73;;;21.70;99.90;;;;;;4989042;28;20849;-53
2022/05/23 13:48:17;;;;;;;3.53;1.83;;;21.70;99.90;;;;;;4994215;28;20493;-52
2022/05/23 13:50:47;;;;;;;2.80;1.50;;;21.50;99.90;;;;;;4993415;28;20470;-53
2022/05/23 13:53:17;;;;;;;1.90;1.73;;;21.50;99.90;;;;;;4993903;28;20488;-53
2022/05/23 13:55:48;;;;;;;2.60;1.50;;;21.40;99.90;;;;;;4991917;28;22108;-51
2022/05/23 13:58:17;;;;;;;1.83;1.73;;;21.30;99.90;;;;;;4996769;28;20498;-52
2022/05/23 14:00:50;;;;;;;2.57;1.60;;;21.30;99.90;;;;;;4992919;28;20488;-50
2022/05/23 14:03:22;;;;;;;5.80;1.73;;;21.30;99.90;;;;;;4995541;28;20493;-53
2022/05/23 14:05:52;;;;;;;4.10;1.50;;;21.40;99.90;;;;;;4998483;28;20453;-52